Time;durP1;ratioP1;P1;durP2;ratioP2;P2;SDS_P1;SDS_P2;PMS_P1;PMS_P2;Temp;Humidity;BMP_temperature;BMP_pressure;BME280_temperature;BME280_humidity;BME280_pressure;Samples;Min_cycle;Max_cycle;Signal;HPM_P1;HPM_P2
2021/10/12 00:01:15;;;;;;;2.65;1.55;;;;;;;9.69;73.14;101674.75;4911802;29;20038;-75
2021/10/12 00:03:41;;;;;;;2.50;1.50;;;;;;;9.67;73.15;101668.69;4901486;29;20055;-75
2021/10/12 00:06:07;;;;;;;5.80;1.38;;;;;;;9.71;73.15;101673.47;4909555;29;20467;-74
2021/10/12 00:08:35;;;;;;;6.45;1.73;;;;;;;9.68;72.24;101675.81;4914615;29;20038;-76
2021/10/12 00:11:01;;;;;;;4.90;1.52;;;;;;;9.61;73.10;101660.34;4901595;29;20036;-75
2021/10/12 00:13:27;;;;;;;4.60;2.08;;;;;;;9.68;72.86;101679.38;4916215;29;20363;-75
2021/10/12 00:15:52;;;;;;;4.63;2.15;;;;;;;9.71;73.21;101678.06;4899885;29;20024;-75
2021/10/12 00:18:18;;;;;;;5.72;2.55;;;;;;;9.72;74.03;101666.91;4915971;29;20537;-77
2021/10/12 00:20:43;;;;;;;4.82;2.88;;;;;;;9.76;74.98;101657.19;4914344;29;20036;-75
2021/10/12 00:23:09;;;;;;;8.30;2.55;;;;;;;9.84;74.71;101664.25;4895474;29;20041;-76
2021/10/12 00:25:35;;;;;;;5.90;2.47;;;;;;;9.86;75.08;101662.13;4918612;29;20458;-75
2021/10/12 00:28:00;;;;;;;6.47;2.17;;;;;;;9.89;75.39;101661.66;4920601;29;20068;-74
2021/10/12 00:30:26;;;;;;;3.15;2.47;;;;;;;9.90;75.21;101657.00;4914066;29;20210;-73
2021/10/12 00:32:52;;;;;;;5.75;2.10;;;;;;;9.85;74.94;101649.50;4901379;29;20058;-73
2021/10/12 00:35:18;;;;;;;3.00;1.63;;;;;;;9.79;75.24;101647.72;4894959;29;20024;-73
2021/10/12 00:37:44;;;;;;;5.00;2.25;;;;;;;9.76;75.06;101645.44;4917688;29;20032;-74
2021/10/12 00:40:10;;;;;;;6.10;2.40;;;;;;;9.68;75.26;101638.41;4920918;29;20111;-75
2021/10/12 00:42:36;;;;;;;5.07;2.20;;;;;;;9.61;75.66;101646.69;4913655;29;20478;-75
2021/10/12 00:45:04;;;;;;;3.13;2.65;;;;;;;9.58;75.03;101638.94;4910508;29;20028;-75
2021/10/12 00:47:29;;;;;;;3.90;2.35;;;;;;;9.50;74.91;101633.78;4911043;29;20059;-74
2021/10/12 00:49:55;;;;;;;2.40;1.58;;;;;;;9.45;74.41;101633.66;4912928;29;20525;-75
2021/10/12 00:52:20;;;;;;;6.82;2.03;;;;;;;9.38;75.28;101639.19;4913455;29;20084;-75
2021/10/12 00:54:46;;;;;;;2.33;2.05;;;;;;;9.31;74.61;101634.88;4927485;29;20046;-74
2021/10/12 00:57:12;;;;;;;7.03;2.30;;;;;;;9.28;75.22;101633.44;4913730;29;20066;-74
2021/10/12 00:59:40;;;;;;;13.90;3.38;;;;;;;9.32;76.39;101644.75;4921206;29;20035;-73
2021/10/12 01:02:06;;;;;;;4.35;2.63;;;;;;;9.33;76.81;101630.00;4915129;29;20032;-73
2021/10/12 01:04:32;;;;;;;7.80;3.55;;;;;;;9.38;77.35;101628.28;4879729;29;20051;-74
2021/10/12 01:06:58;;;;;;;5.22;3.10;;;;;;;9.39;77.73;101629.94;4913475;29;20047;-73
2021/10/12 01:09:23;;;;;;;5.03;3.47;;;;;;;9.34;78.17;101610.69;4915707;29;20394;-74
2021/10/12 01:11:49;;;;;;;8.38;3.67;;;;;;;9.42;77.78;101623.19;4920794;29;20484;-73
2021/10/12 01:14:14;;;;;;;6.50;4.10;;;;;;;9.44;78.15;101623.78;4914473;29;20470;-72
2021/10/12 01:16:40;;;;;;;11.98;3.70;;;;;;;9.44;78.23;101626.53;4923309;29;20047;-72
2021/10/12 01:19:08;;;;;;;6.50;3.58;;;;;;;9.42;78.73;101618.56;4913224;29;20028;-73
2021/10/12 01:21:38;;;;;;;7.90;3.95;;;;;;;9.43;78.62;101611.19;4911566;29;20050;-73
2021/10/12 01:24:04;;;;;;;15.23;4.57;;;;;;;9.39;78.96;101601.81;4912562;29;20035;-71
2021/10/12 01:26:30;;;;;;;19.13;4.53;;;;;;;9.41;78.75;101605.16;4912205;29;20028;-70
2021/10/12 01:28:55;;;;;;;7.65;4.28;;;;;;;9.41;79.45;101610.59;4913431;29;20501;-73
2021/10/12 01:31:26;;;;;;;17.77;4.20;;;;;;;9.40;79.41;101606.19;4903067;29;20076;-72
2021/10/12 01:33:52;;;;;;;7.32;4.50;;;;;;;9.38;79.65;101605.59;4914081;29;20028;-73
2021/10/12 01:36:18;;;;;;;10.07;5.18;;;;;;;9.35;80.28;101600.59;4899771;29;20066;-73
2021/10/12 01:38:44;;;;;;;23.35;4.78;;;;;;;9.30;80.12;101605.91;4913711;29;20067;-73
2021/10/12 01:41:10;;;;;;;14.27;5.05;;;;;;;9.31;80.32;101611.13;4898468;29;20076;-72
2021/10/12 01:43:36;;;;;;;9.70;5.20;;;;;;;9.31;80.47;101605.69;4896101;29;20031;-72
2021/10/12 01:46:03;;;;;;;8.73;5.28;;;;;;;9.30;80.67;101597.72;4919587;29;20058;-73
2021/10/12 01:48:29;;;;;;;9.07;4.28;;;;;;;9.28;80.35;101594.41;4915846;29;20133;-72
2021/10/12 01:50:55;;;;;;;9.18;4.35;;;;;;;9.26;80.05;101587.25;4915275;29;20098;-71
2021/10/12 01:53:20;;;;;;;5.82;4.25;;;;;;;9.23;80.43;101576.81;4881628;29;20036;-72
2021/10/12 01:55:46;;;;;;;11.88;5.97;;;;;;;9.21;80.73;101572.63;4915456;29;20148;-72
2021/10/12 01:58:12;;;;;;;11.85;5.60;;;;;;;9.18;80.79;101573.91;4896150;29;20052;-73
2021/10/12 02:00:37;;;;;;;8.32;4.88;;;;;;;9.20;80.82;101574.53;4915305;29;20449;-71
2021/10/12 02:03:03;;;;;;;7.85;5.18;;;;;;;9.18;80.22;101575.81;4909862;29;20039;-72
2021/10/12 02:05:29;;;;;;;11.93;5.85;;;;;;;9.13;80.10;101571.06;4908126;29;20486;-72
2021/10/12 02:07:54;;;;;;;16.27;6.63;;;;;;;9.11;80.30;101567.69;4882229;29;20091;-72
2021/10/12 02:10:20;;;;;;;5.68;5.15;;;;;;;9.09;79.89;101569.84;4918296;29;20040;-72
2021/10/12 02:12:46;;;;;;;6.28;5.70;;;;;;;9.08;80.30;101557.25;4898869;29;20036;-72
2021/10/12 02:15:12;;;;;;;4.93;4.50;;;;;;;9.07;80.33;101561.06;4894823;29;20145;-72
2021/10/12 02:17:38;;;;;;;6.40;5.90;;;;;;;9.04;80.01;101556.06;4914570;29;20505;-72
2021/10/12 02:20:05;;;;;;;6.93;5.88;;;;;;;9.04;79.58;101551.44;4917623;29;20123;-72
2021/10/12 02:22:33;;;;;;;5.95;5.45;;;;;;;9.01;79.59;101546.44;4899399;29;20055;-72
2021/10/12 02:24:59;;;;;;;6.00;5.50;;;;;;;9.01;80.07;101545.56;4910977;29;20558;-72
2021/10/12 02:27:25;;;;;;;5.25;4.50;;;;;;;9.00;79.24;101546.66;4922968;29;20366;-72
2021/10/12 02:29:51;;;;;;;3.65;3.47;;;;;;;8.99;79.32;101547.72;4913122;29;20119;-72
2021/10/12 02:32:18;;;;;;;2.80;2.60;;;;;;;8.94;79.72;101547.56;4912918;29;20054;-72
2021/10/12 02:34:43;;;;;;;3.50;3.30;;;;;;;8.88;79.52;101547.41;4909699;29;20024;-72
2021/10/12 02:37:09;;;;;;;2.72;2.60;;;;;;;8.87;79.52;101543.00;4911933;29;20039;-71
2021/10/12 02:39:34;;;;;;;2.42;2.33;;;;;;;8.82;79.46;101537.41;4903978;29;20031;-72
2021/10/12 02:42:00;;;;;;;3.42;3.22;;;;;;;8.78;79.65;101543.56;4915864;29;20036;-72
2021/10/12 02:44:25;;;;;;;3.35;3.15;;;;;;;8.70;79.36;101539.22;4925341;29;20071;-72
2021/10/12 02:46:51;;;;;;;1.73;1.63;;;;;;;8.66;79.47;101538.84;4914255;29;20478;-73
2021/10/12 02:49:16;;;;;;;2.67;2.50;;;;;;;8.64;78.56;101529.22;4878938;29;20039;-71
2021/10/12 02:51:42;;;;;;;2.35;2.22;;;;;;;8.59;78.95;101527.16;4916241;29;20394;-72
2021/10/12 02:54:08;;;;;;;3.75;3.55;;;;;;;8.52;79.35;101532.69;4915006;29;20486;-72
2021/10/12 02:56:34;;;;;;;4.57;3.70;;;;;;;8.48;78.94;101531.47;4917269;29;20125;-71
2021/10/12 02:58:59;;;;;;;4.65;3.42;;;;;;;8.45;78.81;101525.63;4897444;29;20075;-71
2021/10/12 03:01:25;;;;;;;4.00;3.70;;;;;;;8.44;79.14;101519.34;4904637;29;20119;-71
2021/10/12 03:03:50;;;;;;;3.65;3.45;;;;;;;8.43;78.93;101512.19;4901205;29;20056;-71
2021/10/12 03:06:16;;;;;;;4.30;4.10;;;;;;;8.41;79.27;101503.44;4921383;29;20040;-72
2021/10/12 03:08:41;;;;;;;3.95;3.78;;;;;;;8.40;79.41;101501.75;4915761;29;20032;-72
2021/10/12 03:11:07;;;;;;;2.90;2.80;;;;;;;8.37;78.76;101494.84;4916489;29;20052;-71
2021/10/12 03:13:32;;;;;;;3.22;3.03;;;;;;;8.36;79.75;101495.06;4917036;29;20042;-71
2021/10/12 03:15:58;;;;;;;2.83;2.72;;;;;;;8.33;79.59;101479.19;4914181;29;20079;-72
2021/10/12 03:18:23;;;;;;;2.85;2.65;;;;;;;8.32;79.67;101483.81;4921246;29;20055;-71
2021/10/12 03:20:49;;;;;;;2.65;2.55;;;;;;;8.30;79.78;101479.63;4917448;29;20541;-71
2021/10/12 03:23:14;;;;;;;5.50;2.90;;;;;;;8.30;79.85;101487.81;4903542;29;20044;-73
2021/10/12 03:25:40;;;;;;;3.05;2.85;;;;;;;8.34;80.39;101491.75;4919129;29;20032;-74
2021/10/12 03:28:05;;;;;;;3.22;2.85;;;;;;;8.33;80.49;101485.44;4915447;29;20043;-72
2021/10/12 03:30:31;;;;;;;2.47;2.38;;;;;;;8.33;79.86;101485.44;4907000;29;20123;-71
2021/10/12 03:32:57;;;;;;;2.53;2.40;;;;;;;8.34;80.29;101486.31;4898870;29;20060;-71
2021/10/12 03:35:29;;;;;;;2.90;1.85;;;;;;;8.35;79.84;101482.50;4897793;29;20164;-73
2021/10/12 03:37:55;;;;;;;2.13;2.03;;;;;;;8.41;80.15;101486.22;4899433;29;20060;-72
2021/10/12 03:40:21;;;;;;;1.20;1.20;;;;;;;8.44;80.28;101478.47;4884047;29;20123;-71
2021/10/12 03:42:47;;;;;;;0.85;0.85;;;;;;;8.47;80.28;101480.75;4915555;29;20579;-71
2021/10/12 03:45:12;;;;;;;0.80;0.80;;;;;;;8.52;80.33;101494.50;4898729;29;20043;-71
2021/10/12 03:47:38;;;;;;;0.40;0.40;;;;;;;8.51;80.03;101487.41;4918434;29;20052;-74
2021/10/12 03:50:04;;;;;;;0.47;0.47;;;;;;;8.53;79.35;101501.63;4903319;29;20124;-74
2021/10/12 03:52:29;;;;;;;0.50;0.50;;;;;;;8.51;78.96;101501.03;4905045;29;20032;-73
2021/10/12 03:54:55;;;;;;;0.57;0.30;;;;;;;8.47;79.09;101508.00;4921633;29;20080;-72
2021/10/12 03:57:20;;;;;;;0.20;0.20;;;;;;;8.45;79.61;101503.81;4918318;29;20036;-74
2021/10/12 03:59:46;;;;;;;0.20;0.20;;;;;;;8.40;79.15;101496.28;4919650;29;20036;-73
2021/10/12 04:02:11;;;;;;;0.40;0.40;;;;;;;8.35;78.54;101487.94;4917284;29;20024;-73
2021/10/12 04:04:36;;;;;;;0.40;0.40;;;;;;;8.30;78.60;101491.34;4905571;29;20086;-73
2021/10/12 04:07:02;;;;;;;0.77;0.77;;;;;;;8.20;78.10;101486.41;4918690;29;20040;-73
2021/10/12 04:09:28;;;;;;;0.40;0.40;;;;;;;8.18;79.17;101499.44;4919826;29;20040;-74
2021/10/12 04:11:53;;;;;;;0.40;0.40;;;;;;;8.16;78.36;101506.16;4924040;29;20032;-74
2021/10/12 04:14:18;;;;;;;0.70;0.70;;;;;;;8.13;79.15;101491.13;4917415;29;20099;-74
2021/10/12 04:16:44;;;;;;;2.13;1.58;;;;;;;8.14;78.66;101498.22;4893120;29;20028;-72
2021/10/12 04:19:09;;;;;;;1.83;1.73;;;;;;;8.14;78.96;101492.75;4915107;29;20028;-73
2021/10/12 04:21:35;;;;;;;1.60;1.52;;;;;;;8.17;79.02;101502.38;4891291;29;20046;-73
2021/10/12 04:24:00;;;;;;;0.80;0.80;;;;;;;8.15;78.83;101501.78;4910330;29;20059;-73
2021/10/12 04:26:27;;;;;;;1.05;1.05;;;;;;;8.12;79.01;101492.16;4921741;29;20133;-73
2021/10/12 04:28:52;;;;;;;0.80;0.80;;;;;;;8.11;78.93;101487.75;4921293;29;20080;-72
2021/10/12 04:31:18;;;;;;;1.88;1.77;;;;;;;8.08;78.32;101482.75;4887790;29;20028;-73
2021/10/12 04:33:43;;;;;;;3.40;2.25;;;;;;;8.04;78.64;101482.38;4916932;29;20036;-72
2021/10/12 04:36:09;;;;;;;1.88;1.77;;;;;;;7.98;78.67;101477.00;4911488;29;20067;-72
2021/10/12 04:38:34;;;;;;;1.10;1.10;;;;;;;7.96;78.74;101484.56;4895876;29;20039;-71
2021/10/12 04:41:02;;;;;;;1.27;1.17;;;;;;;7.95;77.99;101488.34;4907840;29;20492;-72
2021/10/12 04:43:27;;;;;;;0.65;0.65;;;;;;;7.91;78.90;101492.56;4896167;29;20036;-72
2021/10/12 04:45:53;;;;;;;0.77;0.75;;;;;;;7.86;78.76;101485.88;4915868;29;20104;-73
2021/10/12 04:48:18;;;;;;;0.82;0.82;;;;;;;7.83;78.70;101497.22;4915087;29;20032;-73
2021/10/12 04:50:44;;;;;;;0.40;0.40;;;;;;;7.82;78.56;101492.81;4898391;29;20059;-73
2021/10/12 04:53:09;;;;;;;0.30;0.30;;;;;;;7.76;77.88;101488.25;4913860;29;20028;-72
2021/10/12 04:55:40;;;;;;;1.05;1.05;;;;;;;7.67;78.44;101481.44;4900035;29;20055;-73
2021/10/12 04:58:07;;;;;;;0.95;0.95;;;;;;;7.60;77.69;101486.09;4907216;29;20039;-74
2021/10/12 05:00:32;;;;;;;1.95;1.10;;;;;;;7.58;78.63;101485.44;4917164;29;20119;-74
2021/10/12 05:02:57;;;;;;;0.60;0.60;;;;;;;7.55;77.79;101483.19;4921916;29;20114;-73
2021/10/12 05:05:23;;;;;;;0.73;0.73;;;;;;;7.53;78.75;101480.66;4907429;29;20389;-73
2021/10/12 05:07:48;;;;;;;1.27;0.60;;;;;;;7.50;78.22;101481.97;4924511;29;20140;-73
2021/10/12 05:10:14;;;;;;;1.55;1.45;;;;;;;7.46;78.31;101469.84;4916976;29;20063;-74
2021/10/12 05:12:40;;;;;;;1.40;1.30;;;;;;;7.45;77.71;101479.06;4899874;29;20031;-73
2021/10/12 05:15:06;;;;;;;1.83;1.00;;;;;;;7.42;78.00;101471.34;4898529;29;20351;-74
2021/10/12 05:17:40;;;;;;;2.72;2.53;;;;;;;7.44;77.76;101469.22;4896953;29;20446;-73
2021/10/12 05:20:06;;;;;;;6.05;3.05;;;;;;;7.44;78.00;101463.78;4894374;29;20045;-74
2021/10/12 05:22:32;;;;;;;5.82;2.78;;;;;;;7.49;78.14;101463.97;4911702;29;20103;-73
2021/10/12 05:24:58;;;;;;;2.28;2.08;;;;;;;7.50;78.87;101457.47;4896636;29;20050;-73
2021/10/12 05:27:24;;;;;;;2.75;2.55;;;;;;;7.63;79.24;101459.25;4895543;29;20071;-73
2021/10/12 05:29:50;;;;;;;3.85;1.77;;;;;;;7.68;78.97;101440.38;4931836;29;20060;-74
2021/10/12 05:32:15;;;;;;;3.53;2.95;;;;;;;7.84;79.17;101454.47;4910621;29;20032;-73
2021/10/12 05:34:41;;;;;;;3.47;2.05;;;;;;;7.95;78.64;101455.66;4913319;29;20028;-71
2021/10/12 05:37:06;;;;;;;5.85;3.10;;;;;;;8.04;78.92;101449.69;4913707;29;20094;-71
2021/10/12 05:39:32;;;;;;;7.57;2.97;;;;;;;8.16;79.42;101457.97;4892465;29;20040;-71
2021/10/12 05:41:58;;;;;;;3.30;3.00;;;;;;;8.25;79.50;101457.66;4914902;29;20116;-71
2021/10/12 05:44:23;;;;;;;4.30;2.67;;;;;;;8.29;78.88;101461.59;4894884;29;20032;-71
2021/10/12 05:46:49;;;;;;;3.83;2.45;;;;;;;8.32;79.74;101467.44;4914911;29;20037;-72
2021/10/12 05:49:15;;;;;;;4.88;4.07;;;;;;;8.36;78.97;101451.47;4915233;29;20032;-73
2021/10/12 05:51:43;;;;;;;3.85;3.65;;;;;;;8.53;79.76;101465.38;4910062;29;20099;-72
2021/10/12 05:54:10;;;;;;;3.80;3.50;;;;;;;8.63;79.18;101462.09;4912790;29;20035;-71
2021/10/12 05:56:55;;;;;;;3.47;3.17;;;;;;;8.70;79.11;101446.50;4916249;29;20021;-72
2021/10/12 05:59:20;;;;;;;4.97;4.07;;;;;;;8.70;79.59;101441.03;4905963;29;20497;-71
2021/10/12 06:01:46;;;;;;;4.32;3.92;;;;;;;8.67;79.13;101452.41;4896387;29;20044;-71
2021/10/12 06:04:11;;;;;;;5.47;3.95;;;;;;;8.70;79.48;101462.84;4908444;29;20076;-70
2021/10/12 06:06:37;;;;;;;4.53;4.15;;;;;;;8.70;79.00;101462.84;4911075;29;20115;-70
2021/10/12 06:09:03;;;;;;;4.10;3.72;;;;;;;8.71;79.59;101469.97;4908636;29;20032;-72
2021/10/12 06:11:29;;;;;;;3.90;3.60;;;;;;;8.73;79.60;101467.84;4883426;29;20031;-77
2021/10/12 06:13:56;;;;;;;3.67;3.38;;;;;;;8.72;79.33;101460.75;4916976;29;20100;-74
2021/10/12 06:16:22;;;;;;;5.93;5.03;;;;;;;8.68;79.13;101437.72;4891765;29;20044;-72
2021/10/12 06:18:47;;;;;;;4.88;4.40;;;;;;;8.69;79.59;101439.41;4915120;29;20083;-71
2021/10/12 06:21:13;;;;;;;3.58;3.38;;;;;;;8.69;78.93;101448.41;4909691;29;20561;-70
2021/10/12 06:23:39;;;;;;;4.65;4.35;;;;;;;8.73;79.87;101448.75;4911128;29;20040;-72
2021/10/12 06:26:05;;;;;;;4.90;4.40;;;;;;;8.77;79.41;101460.06;4910593;29;20032;-71
2021/10/12 06:28:31;;;;;;;8.40;4.50;;;;;;;8.77;79.43;101455.44;4913635;29;20148;-71
2021/10/12 06:30:58;;;;;;;4.40;4.00;;;;;;;8.81;79.72;101453.91;4913702;29;20530;-78
2021/10/12 06:33:24;;;;;;;4.18;3.92;;;;;;;8.78;79.51;101451.66;4885085;29;20115;-75
2021/10/12 06:35:50;;;;;;;3.25;2.85;;;;;;;8.71;79.47;101437.25;4912431;29;20110;-74
2021/10/12 06:38:15;;;;;;;3.25;3.05;;;;;;;8.63;79.05;101434.81;4903367;29;20032;-73
2021/10/12 06:40:41;;;;;;;4.10;3.83;;;;;;;8.59;79.40;101444.56;4917410;29;20040;-75
2021/10/12 06:43:08;;;;;;;3.70;3.40;;;;;;;8.52;80.00;101444.63;4902266;29;20032;-74
2021/10/12 06:45:37;;;;;;;3.70;3.50;;;;;;;8.45;80.14;101449.31;4906152;29;20040;-73
2021/10/12 06:48:04;;;;;;;3.08;2.97;;;;;;;8.42;80.19;101436.94;4916185;29;20059;-74
2021/10/12 06:50:38;;;;;;;3.25;3.05;;;;;;;8.40;80.64;101433.59;4907563;29;20042;-73
2021/10/12 06:53:04;;;;;;;3.92;3.63;;;;;;;8.49;79.72;101440.44;4915412;29;20028;-74
2021/10/12 06:55:30;;;;;;;3.40;3.10;;;;;;;8.52;80.36;101439.97;4931800;29;20452;-73
2021/10/12 06:57:55;;;;;;;3.58;3.38;;;;;;;8.54;79.89;101442.47;4907074;29;20024;-73
2021/10/12 07:00:21;;;;;;;4.65;4.25;;;;;;;8.54;80.02;101432.44;4908470;29;20040;-73
2021/10/12 07:02:47;;;;;;;3.58;3.38;;;;;;;8.71;80.00;101437.25;4915247;29;20059;-72
2021/10/12 07:05:14;;;;;;;4.10;3.83;;;;;;;8.79;79.62;101439.69;4922031;29;20036;-72
2021/10/12 07:07:41;;;;;;;3.45;3.17;;;;;;;8.87;79.81;101433.06;4917158;29;20168;-73
2021/10/12 07:10:09;;;;;;;3.22;2.92;;;;;;;8.98;79.47;101431.44;4918800;29;20096;-72
2021/10/12 07:12:35;;;;;;;2.70;2.50;;;;;;;9.12;79.75;101427.47;4901179;29;20479;-72
2021/10/12 07:15:02;;;;;;;4.10;3.80;;;;;;;9.23;80.01;101421.22;4919307;29;20032;-71
2021/10/12 07:17:31;;;;;;;3.80;3.60;;;;;;;9.40;79.18;101423.28;4901042;29;20529;-74
2021/10/12 07:19:57;;;;;;;2.58;2.40;;;;;;;9.60;79.00;101429.25;4915446;29;20055;-71
2021/10/12 07:22:23;;;;;;;1.70;1.60;;;;;;;9.79;78.41;101432.72;4915881;29;20036;-73
2021/10/12 07:24:52;;;;;;;2.45;2.30;;;;;;;9.99;78.52;101428.84;4887601;29;20040;-73
2021/10/12 07:27:18;;;;;;;3.15;2.95;;;;;;;10.16;78.21;101437.13;4920674;29;20032;-74
2021/10/12 07:29:51;;;;;;;3.00;2.90;;;;;;;10.36;77.33;101431.31;4904102;29;20032;-74
2021/10/12 07:32:19;;;;;;;2.80;2.60;;;;;;;10.77;76.79;101440.38;4915015;29;20031;-75
2021/10/12 07:35:00;;;;;;;1.50;1.10;;;;;;;11.25;76.93;101429.25;4919122;29;20032;-73
2021/10/12 07:37:27;;;;;;;0.70;0.70;;;;;;;11.87;75.63;101423.75;4898161;29;20084;-73
2021/10/12 07:40:07;;;;;;;0.90;0.90;;;;;;;12.56;74.42;101446.41;4919341;29;20032;-73
2021/10/12 07:42:34;;;;;;;0.82;0.52;;;;;;;12.97;72.95;101454.31;4898051;29;20091;-74
2021/10/12 07:45:00;;;;;;;0.70;0.70;;;;;;;13.09;72.51;101444.00;4892648;29;20150;-73
2021/10/12 07:47:52;;;;;;;1.85;1.75;;;;;;;12.99;71.99;101439.22;4906970;29;20534;-75
2021/10/12 07:50:18;;;;;;;2.58;1.00;;;;;;;12.85;72.63;101437.97;4900833;29;20394;-75
2021/10/12 07:52:50;;;;;;;2.15;0.98;;;;;;;12.85;72.43;101455.28;4920347;29;20027;-75
2021/10/12 07:58:13;;;;;;;1.40;1.30;;;;;;;12.79;73.52;101455.47;4917848;29;20036;-74
2021/10/12 08:00:46;;;;;;;2.60;2.40;;;;;;;12.62;73.76;101422.63;4917091;29;20074;-74
2021/10/12 08:03:20;;;;;;;2.10;2.00;;;;;;;12.69;73.96;101435.06;4907268;29;20087;-73
2021/10/12 08:05:49;;;;;;;2.53;2.23;;;;;;;12.93;73.46;101434.78;4914734;29;20032;-73
2021/10/12 08:08:25;;;;;;;;;;;;;;;;;;;;;
2021/10/12 08:10:50;;;;;;;1.83;1.55;;;;;;;14.54;72.49;101457.00;4917495;29;20121;-73
2021/10/12 08:13:21;;;;;;;0.80;0.80;;;;;;;15.47;70.36;101452.66;4920143;29;20099;-72
2021/10/12 08:16:00;;;;;;;4.20;1.80;;;;;;;16.26;67.95;101442.13;4919264;29;20028;-75
2021/10/12 08:18:28;;;;;;;1.08;1.02;;;;;;;16.72;66.71;101432.88;4914747;29;20066;-73
2021/10/12 08:21:01;;;;;;;0.60;0.60;;;;;;;16.82;66.11;101432.84;4917170;29;20039;-71
2021/10/12 08:23:30;;;;;;;1.65;1.55;;;;;;;16.61;66.15;101423.81;4916543;29;20470;-72
2021/10/12 08:25:55;;;;;;;1.10;1.10;;;;;;;16.81;66.67;101447.75;4911312;29;20044;-72
2021/10/12 08:28:21;;;;;;;0.88;0.80;;;;;;;17.42;66.51;101463.19;4913710;29;20039;-72
2021/10/12 08:30:49;;;;;;;0.93;0.60;;;;;;;18.06;65.48;101454.13;4916271;29;20047;-71
2021/10/12 08:33:14;;;;;;;0.80;0.70;;;;;;;18.93;64.46;101455.91;4920112;29;20130;-72
2021/10/12 08:35:40;;;;;;;2.25;1.98;;;;;;;19.54;61.14;101453.38;4915443;29;20138;-72
2021/10/12 08:38:05;;;;;;;1.40;1.30;;;;;;;19.99;60.22;101453.75;4914861;29;20423;-71
2021/10/12 08:40:31;;;;;;;0.88;0.77;;;;;;;20.48;59.12;101445.88;4909241;29;20032;-72
2021/10/12 08:42:58;;;;;;;1.65;1.50;;;;;;;21.05;57.92;101450.28;4911058;29;20362;-74
2021/10/12 08:45:24;;;;;;;3.13;1.42;;;;;;;21.49;56.58;101448.69;4910895;29;20040;-72
2021/10/12 08:47:51;;;;;;;0.68;0.60;;;;;;;22.11;56.54;101448.00;4907767;29;20120;-71
2021/10/12 08:50:21;;;;;;;1.23;0.65;;;;;;;22.87;55.90;101450.91;4908779;29;20056;-71
2021/10/12 08:52:47;;;;;;;0.82;0.40;;;;;;;23.61;54.16;101463.13;4892070;29;20054;-73
2021/10/12 08:55:14;;;;;;;1.30;0.75;;;;;;;24.13;52.45;101463.06;4895647;29;20024;-73
2021/10/12 08:57:43;;;;;;;2.20;1.10;;;;;;;24.34;50.85;101456.75;4893486;29;20021;-73
2021/10/12 09:00:14;;;;;;;0.77;0.73;;;;;;;24.17;50.15;101455.66;4896497;29;20328;-72
2021/10/12 09:05:57;;;;;;;2.88;1.00;;;;;;;23.90;47.93;101456.06;4895467;29;20039;-73
2021/10/12 09:08:39;;;;;;;;;;;;;;;;;;;;;
2021/10/12 09:11:20;;;;;;;1.30;1.20;;;;;;;23.97;45.93;101448.00;4898464;29;20115;-73
2021/10/12 09:13:48;;;;;;;0.90;0.90;;;;;;;23.97;45.38;101448.00;4900126;29;20035;-74
2021/10/12 09:16:16;;;;;;;2.22;1.60;;;;;;;24.07;43.06;101450.44;4894983;29;20041;-72
2021/10/12 09:18:49;;;;;;;1.67;1.17;;;;;;;24.32;42.93;101454.28;4895976;29;20036;-74
2021/10/12 09:21:28;;;;;;;2.55;1.60;;;;;;;24.38;40.88;101454.91;4899477;29;20036;-73
2021/10/12 09:24:35;;;;;;;;;;;;;;;;;;;;;
2021/10/12 09:27:04;;;;;;;4.68;1.40;;;;;;;23.92;41.32;101423.03;4859947;29;20128;-72
2021/10/12 09:32:09;;;;;;;0.80;0.43;;;;;;;23.98;43.18;101427.28;4899160;29;20029;-74
2021/10/12 09:34:35;;;;;;;1.30;0.50;;;;;;;24.17;42.83;101441.69;4897334;29;20049;-75
2021/10/12 09:37:03;;;;;;;4.32;1.02;;;;;;;24.12;41.07;101438.25;4897686;29;20092;-74
2021/10/12 09:39:34;;;;;;;0.95;0.80;;;;;;;24.21;42.02;101448.25;4898794;29;20029;-74
2021/10/12 09:42:02;;;;;;;1.42;0.63;;;;;;;24.26;41.93;101438.06;4892248;29;20043;-73
2021/10/12 09:44:28;;;;;;;2.95;0.65;;;;;;;24.25;41.58;101444.78;4893739;29;20364;-72
2021/10/12 09:47:05;;;;;;;0.68;0.50;;;;;;;24.28;41.79;101444.09;4904841;29;20052;-73
2021/10/12 09:49:30;;;;;;;4.22;1.30;;;;;;;24.26;41.02;101438.06;4912093;29;20020;-75
2021/10/12 09:52:13;;;;;;;4.78;0.73;;;;;;;24.41;41.50;101454.25;4913146;29;20471;-71
2021/10/12 09:54:48;;;;;;;0.50;0.50;;;;;;;24.63;41.00;101457.97;4912149;29;20055;-72
2021/10/12 09:57:19;;;;;;;2.88;1.10;;;;;;;24.96;40.98;101455.28;4914191;29;20029;-73
2021/10/12 09:59:45;;;;;;;1.48;0.35;;;;;;;25.47;40.58;101446.84;4901786;29;20032;-73
2021/10/12 10:02:21;;;;;;;0.82;0.52;;;;;;;25.96;40.20;101444.22;4918970;29;20028;-72
2021/10/12 10:04:48;;;;;;;1.77;0.32;;;;;;;26.43;39.73;101442.19;4918492;29;20031;-73
2021/10/12 10:07:24;;;;;;;0.82;0.40;;;;;;;27.12;38.86;101445.22;4924812;29;20055;-74
2021/10/12 10:09:55;;;;;;;0.60;0.40;;;;;;;27.60;37.88;101443.41;4897550;29;20028;-72
2021/10/12 10:12:20;;;;;;;3.10;0.77;;;;;;;27.82;34.88;101444.03;4918395;29;20028;-73
2021/10/12 10:14:46;;;;;;;0.80;0.50;;;;;;;27.89;35.67;101435.78;4919653;29;20047;-74
2021/10/12 10:17:15;;;;;;;4.18;0.90;;;;;;;27.96;33.69;101449.19;4890700;29;20123;-73
2021/10/12 10:19:43;;;;;;;0.88;0.43;;;;;;;28.04;34.80;101439.81;4925477;29;20039;-75
2021/10/12 10:22:29;;;;;;;0.90;0.47;;;;;;;28.46;35.19;101438.44;4918861;29;20043;-74
2021/10/12 10:25:04;;;;;;;0.38;0.20;;;;;;;29.37;35.06;101447.78;4903796;29;20516;-74
2021/10/12 10:27:41;;;;;;;1.15;0.68;;;;;;;30.14;32.77;101445.22;4925644;29;20020;-75
2021/10/12 10:30:31;;;;;;;2.03;0.80;;;;;;;30.67;31.86;101453.78;4910141;29;20128;-76
2021/10/12 10:33:04;;;;;;;4.90;0.70;;;;;;;31.03;31.27;101445.88;4924732;29;20024;-75
2021/10/12 10:35:40;;;;;;;2.03;0.70;;;;;;;31.47;30.47;101459.34;4922387;29;20541;-72
2021/10/12 10:38:21;;;;;;;0.60;0.47;;;;;;;31.79;29.62;101458.94;4905599;29;20028;-71
2021/10/12 10:40:47;;;;;;;2.03;0.63;;;;;;;31.66;27.96;101454.75;4915066;29;20031;-72
2021/10/12 10:43:14;;;;;;;0.55;0.35;;;;;;;31.93;28.53;101451.78;4915125;29;20062;-70
2021/10/12 10:45:40;;;;;;;0.90;0.50;;;;;;;32.29;28.00;101440.84;4900943;29;20577;-72
2021/10/12 10:48:09;;;;;;;1.27;0.30;;;;;;;32.69;27.83;101453.28;4918909;29;20048;-73
2021/10/12 10:50:34;;;;;;;3.38;0.57;;;;;;;32.86;26.55;101444.09;4900805;29;20040;-75
2021/10/12 10:53:03;;;;;;;1.17;0.60;;;;;;;33.09;26.84;101434.50;4902654;29;20122;-74
2021/10/12 10:55:33;;;;;;;2.20;0.40;;;;;;;33.21;25.83;101431.34;4919728;29;20044;-71
2021/10/12 10:58:27;;;;;;;4.15;0.52;;;;;;;33.66;25.66;101430.25;4920111;29;20047;-73
2021/10/12 11:00:55;;;;;;;1.15;0.55;;;;;;;33.92;25.60;101420.59;4899933;29;20054;-73
2021/10/12 11:03:36;;;;;;;2.15;0.45;;;;;;;34.55;25.84;101418.19;4906060;29;20039;-75
2021/10/12 11:06:11;;;;;;;0.47;0.43;;;;;;;34.99;24.63;101398.19;4918754;29;20406;-75
2021/10/12 11:08:53;;;;;;;1.25;0.68;;;;;;;35.36;22.38;101391.16;4905820;29;20035;-75
2021/10/12 11:11:19;;;;;;;0.75;0.40;;;;;;;35.40;21.89;101387.06;4916751;29;20036;-73
2021/10/12 11:13:57;;;;;;;;;;;;;;;;;;;;;
2021/10/12 11:16:38;;;;;;;0.70;0.52;;;;;;;35.88;22.08;101385.53;4902748;29;20040;-73
2021/10/12 11:19:05;;;;;;;0.52;0.32;;;;;;;36.00;22.07;101385.03;4918291;29;20028;-74
2021/10/12 11:21:31;;;;;;;0.93;0.40;;;;;;;36.44;22.42;101381.81;4903417;29;20038;-74
2021/10/12 11:24:01;;;;;;;0.82;0.38;;;;;;;36.92;21.69;101392.28;4920587;29;20060;-74
2021/10/12 11:26:27;;;;;;;1.50;0.63;;;;;;;37.24;21.38;101391.03;4916946;29;20015;-73
2021/10/12 11:28:56;;;;;;;0.85;0.57;;;;;;;37.49;20.53;101390.72;4903303;29;20028;-73
2021/10/12 11:31:27;;;;;;;1.50;0.52;;;;;;;37.77;20.44;101399.28;4921493;29;20028;-74
2021/10/12 11:34:09;;;;;;;0.65;0.50;;;;;;;38.23;20.47;101403.41;4917342;29;20064;-74
2021/10/12 11:36:37;;;;;;;0.75;0.22;;;;;;;38.37;20.40;101390.94;4903696;29;20069;-74
2021/10/12 11:39:35;;;;;;;0.60;0.43;;;;;;;38.80;20.31;101395.03;4898838;29;20043;-75
2021/10/12 11:42:02;;;;;;;0.38;0.20;;;;;;;39.03;19.87;101380.63;4918645;29;20475;-74
2021/10/12 11:44:28;;;;;;;5.53;0.43;;;;;;;39.32;19.11;101391.47;4917885;29;20043;-73
2021/10/12 11:50:37;;;;;;;0.50;0.30;;;;;;;39.82;18.63;101377.25;4914181;29;20060;-72